createdAt,value
2018-11-11T00:00:10.134Z,65.58
2018-11-11T00:02:19.987Z,65.56
2018-11-11T00:04:27.846Z,65.54
2018-11-11T00:06:35.596Z,65.55
2018-11-11T00:08:43.340Z,65.59
2018-11-11T00:10:51.157Z,65.63
2018-11-11T00:12:59.726Z,65.65
2018-11-11T00:15:09.133Z,65.73
2018-11-11T00:17:16.859Z,65.84
2018-11-11T00:19:24.581Z,65.96
2018-11-11T00:21:32.337Z,66.02
2018-11-11T00:24:12.468Z,66.01
2018-11-11T00:26:21.802Z,65.98
2018-11-11T00:28:30.938Z,65.96
2018-11-11T00:30:40.706Z,66.01
2018-11-11T00:32:48.493Z,66.10
2018-11-11T00:34:56.257Z,66.17
2018-11-11T00:37:04.288Z,66.21
2018-11-11T00:39:12.245Z,66.21
2018-11-11T00:41:20.029Z,66.17
2018-11-11T00:43:28.895Z,66.13
2018-11-11T00:45:36.776Z,66.11
2018-11-11T00:47:44.896Z,66.11
2018-11-11T00:49:54.652Z,66.23
2018-11-11T00:52:03.597Z,66.28
2018-11-11T00:54:11.320Z,66.34
2018-11-11T00:56:19.002Z,66.34
2018-11-11T00:58:26.696Z,66.34
2018-11-11T01:00:34.387Z,66.44
2018-11-11T01:02:42.692Z,66.48
2018-11-11T01:04:50.436Z,66.47
2018-11-11T01:06:58.388Z,66.53
2018-11-11T01:09:07.255Z,66.59
2018-11-11T01:11:14.991Z,66.64
2018-11-11T01:13:22.668Z,66.65
2018-11-11T01:15:30.473Z,66.64
2018-11-11T01:17:38.183Z,66.65
2018-11-11T01:19:49.887Z,66.61
2018-11-11T01:21:58.509Z,66.57
2018-11-11T01:24:06.400Z,66.54
2018-11-11T01:26:14.066Z,66.48
2018-11-11T01:28:21.782Z,66.47
2018-11-11T01:30:29.454Z,66.59
2018-11-11T01:32:37.325Z,66.68
2018-11-11T01:34:45.032Z,66.73
2018-11-11T01:36:52.731Z,66.80
2018-11-11T01:39:00.428Z,66.81
2018-11-11T01:41:08.215Z,66.81
2018-11-11T01:43:15.920Z,66.77
2018-11-11T01:45:23.789Z,66.75
2018-11-11T01:47:30.594Z,66.80
2018-11-11T01:49:35.466Z,66.82
2018-11-11T01:51:43.225Z,66.79
2018-11-11T01:53:50.931Z,66.76
2018-11-11T01:55:58.632Z,66.69
2018-11-11T01:58:06.514Z,66.63
2018-11-11T02:00:16.696Z,66.68
2018-11-11T02:02:24.404Z,66.71
2018-11-11T02:04:34.673Z,66.70
2018-11-11T02:06:42.389Z,66.76
2018-11-11T02:08:50.075Z,66.76
2018-11-11T02:10:57.784Z,66.78
2018-11-11T02:13:05.508Z,66.68
2018-11-11T02:15:14.327Z,66.61
2018-11-11T02:17:22.015Z,66.53
2018-11-11T02:19:29.716Z,66.42
2018-11-11T02:21:37.623Z,66.34
2018-11-11T02:23:45.228Z,66.34
2018-11-11T02:25:51.766Z,66.31
2018-11-11T02:27:56.619Z,66.29
2018-11-11T02:30:04.337Z,66.34
2018-11-11T02:32:12.055Z,66.39
2018-11-11T02:34:19.775Z,66.26
2018-11-11T02:36:27.440Z,66.28
2018-11-11T02:38:35.257Z,66.35
2018-11-11T02:40:42.895Z,66.40
2018-11-11T02:42:50.871Z,66.36
2018-11-11T02:44:58.555Z,66.32
2018-11-11T02:47:04.663Z,66.35
2018-11-11T02:49:09.515Z,66.47
2018-11-11T02:51:17.193Z,66.55
2018-11-11T02:53:24.910Z,66.58
2018-11-11T02:55:32.600Z,66.56
2018-11-11T02:57:40.731Z,66.55
2018-11-11T02:59:48.565Z,66.49
2018-11-11T03:01:56.283Z,66.42
2018-11-11T03:04:03.959Z,66.29
2018-11-11T03:06:11.673Z,66.31
2018-11-11T03:08:19.321Z,66.33
2018-11-11T03:10:27.037Z,66.26
2018-11-11T03:12:34.690Z,66.27
2018-11-11T03:14:42.378Z,66.27
2018-11-11T03:16:50.127Z,66.26
2018-11-11T03:18:57.816Z,66.32
2018-11-11T03:21:05.470Z,66.38
2018-11-11T03:23:13.180Z,66.45
2018-11-11T03:25:20.862Z,66.56
2018-11-11T03:27:28.513Z,66.73
2018-11-11T03:29:36.148Z,66.80
2018-11-11T03:31:43.832Z,66.83
2018-11-11T03:33:51.508Z,66.82
2018-11-11T03:35:59.327Z,66.86
2018-11-11T03:38:07.051Z,66.87
2018-11-11T03:40:21.417Z,66.97
2018-11-11T03:42:29.390Z,67.06
2018-11-11T03:44:37.151Z,67.08
2018-11-11T03:46:44.846Z,67.11
2018-11-11T03:48:51.281Z,67.07
2018-11-11T03:50:56.174Z,67.01
2018-11-11T03:53:03.852Z,67.03
2018-11-11T03:55:11.898Z,67.11
2018-11-11T03:57:19.568Z,67.23
2018-11-11T03:59:27.267Z,67.39
2018-11-11T04:01:34.923Z,67.41
2018-11-11T04:03:42.600Z,67.35
2018-11-11T04:05:50.277Z,67.29
2018-11-11T04:07:57.969Z,67.22
2018-11-11T04:10:06.526Z,67.20
2018-11-11T04:12:14.273Z,67.13
2018-11-11T04:14:21.968Z,67.12
2018-11-11T04:16:29.648Z,67.10
2018-11-11T04:18:37.337Z,67.08
2018-11-11T04:20:45.029Z,67.15
2018-11-11T04:22:52.704Z,67.23
2018-11-11T04:25:00.387Z,67.33
2018-11-11T04:27:08.339Z,67.42
2018-11-11T04:29:16.083Z,67.48
2018-11-11T04:31:23.771Z,67.51
2018-11-11T04:33:31.429Z,67.56
2018-11-11T04:35:39.098Z,67.59
2018-11-11T04:37:46.788Z,67.59
2018-11-11T04:39:54.484Z,67.67
2018-11-11T04:42:02.181Z,67.75
2018-11-11T04:44:10.100Z,67.72
2018-11-11T04:46:17.857Z,67.65
2018-11-11T04:48:25.697Z,67.54
2018-11-11T04:50:33.372Z,67.52
2018-11-11T04:52:41.159Z,67.53
2018-11-11T04:54:48.977Z,67.52
2018-11-11T04:56:56.661Z,67.46
2018-11-11T04:59:04.332Z,67.40
2018-11-11T05:01:12.082Z,67.41
2018-11-11T05:03:19.786Z,67.35
2018-11-11T05:05:27.595Z,67.37
2018-11-11T05:07:35.300Z,67.44
2018-11-11T05:09:42.952Z,67.44
2018-11-11T05:11:50.643Z,67.44
2018-11-11T05:13:58.303Z,67.36
2018-11-11T05:16:06.050Z,67.33
2018-11-11T05:18:13.772Z,67.45
2018-11-11T05:20:21.440Z,67.46
2018-11-11T05:22:29.844Z,67.44
2018-11-11T05:24:37.945Z,67.38
2018-11-11T05:26:45.605Z,67.33
2018-11-11T05:28:53.379Z,67.41
2018-11-11T05:31:01.071Z,67.50
2018-11-11T05:33:08.747Z,67.55
2018-11-11T05:35:16.415Z,67.63
2018-11-11T05:37:24.106Z,67.65
2018-11-11T05:39:31.768Z,67.69
2018-11-11T05:41:39.534Z,67.68
2018-11-11T05:43:47.297Z,67.61
2018-11-11T05:45:54.950Z,67.55
2018-11-11T05:48:01.376Z,67.52
2018-11-11T05:50:06.249Z,67.47
2018-11-11T05:52:13.919Z,67.43
2018-11-11T05:54:21.727Z,67.45
2018-11-11T05:56:29.395Z,67.50
2018-11-11T05:58:37.101Z,67.52
2018-11-11T06:00:44.893Z,67.59
2018-11-11T06:02:52.575Z,67.55
2018-11-11T06:05:00.292Z,67.58
2018-11-11T06:07:09.111Z,67.61
2018-11-11T06:09:16.802Z,67.65
2018-11-11T06:11:24.809Z,67.80
2018-11-11T06:13:32.497Z,68.09
2018-11-11T06:15:40.201Z,68.47
2018-11-11T06:17:48.011Z,68.70
2018-11-11T06:19:55.709Z,68.86
2018-11-11T06:22:03.431Z,69.06
2018-11-11T06:24:11.136Z,69.14
2018-11-11T06:26:18.846Z,69.23
2018-11-11T06:28:26.589Z,69.28
2018-11-11T06:30:34.304Z,69.30
2018-11-11T06:32:42.133Z,69.35
2018-11-11T06:34:49.841Z,69.37
2018-11-11T06:36:57.531Z,69.38
2018-11-11T06:39:06.358Z,69.37
2018-11-11T06:41:14.115Z,69.33
2018-11-11T06:43:21.807Z,69.31
2018-11-11T06:45:29.555Z,69.29
2018-11-11T06:47:36.128Z,69.19
2018-11-11T06:49:41.724Z,69.12
2018-11-11T06:51:49.439Z,69.07
2018-11-11T06:53:57.280Z,69.06
2018-11-11T06:56:05.063Z,69.09
2018-11-11T06:58:12.884Z,69.07
2018-11-11T07:00:21.428Z,69.03
2018-11-11T07:02:40.464Z,69.00
2018-11-11T07:04:49.278Z,69.00
2018-11-11T07:06:57.094Z,68.95
2018-11-11T07:09:06.054Z,68.97
2018-11-11T07:11:14.816Z,68.98
2018-11-11T07:13:21.490Z,68.90
2018-11-11T07:15:27.379Z,68.81
2018-11-11T07:17:35.195Z,68.74
2018-11-11T07:19:43.455Z,68.72
2018-11-11T07:21:51.188Z,68.71
2018-11-11T07:24:00.253Z,68.64
2018-11-11T07:26:08.084Z,68.60
2018-11-11T07:28:15.915Z,68.60
2018-11-11T07:30:23.563Z,68.59
2018-11-11T07:32:31.284Z,68.62
2018-11-11T07:34:40.111Z,68.64
2018-11-11T07:36:47.814Z,68.65
2018-11-11T07:38:55.617Z,68.62
2018-11-11T07:41:03.439Z,68.62
2018-11-11T07:43:11.211Z,68.65
2018-11-11T07:45:19.180Z,68.69
2018-11-11T07:47:27.755Z,68.75
2018-11-11T07:49:35.533Z,68.82
2018-11-11T07:51:44.788Z,68.89
2018-11-11T07:53:52.510Z,68.91
2018-11-11T07:56:00.833Z,68.95
2018-11-11T07:58:08.705Z,68.92
2018-11-11T08:00:16.708Z,68.89
2018-11-11T08:02:25.610Z,68.86
2018-11-11T08:04:33.302Z,68.90
2018-11-11T08:06:42.046Z,68.95
2018-11-11T08:08:49.840Z,69.01
2018-11-11T08:11:51.079Z,69.04
2018-11-11T08:13:58.967Z,69.06
2018-11-11T08:16:07.062Z,69.04
2018-11-11T08:18:30.707Z,69.02
2018-11-11T08:20:36.623Z,68.94
2018-11-11T08:22:45.430Z,68.83
2018-11-11T08:24:53.272Z,68.76
2018-11-11T08:27:01.014Z,68.67
2018-11-11T08:29:09.728Z,68.63
2018-11-11T08:31:17.515Z,68.59
2018-11-11T08:33:26.458Z,68.56
2018-11-11T08:35:48.677Z,68.50
2018-11-11T08:38:15.331Z,68.47
2018-11-11T08:40:23.514Z,68.42
2018-11-11T08:42:31.170Z,68.38
2018-11-11T08:44:53.256Z,68.37
2018-11-11T08:47:17.092Z,68.34
2018-11-11T08:50:03.667Z,68.29
2018-11-11T08:52:10.700Z,68.28
2018-11-11T08:54:45.176Z,68.26
2018-11-11T08:59:28.117Z,68.23
2018-11-11T09:01:38.350Z,68.18
2018-11-11T09:03:57.171Z,68.15
2018-11-11T09:06:10.981Z,68.13
2018-11-11T09:08:27.035Z,68.10
2018-11-11T09:10:36.502Z,68.02
2018-11-11T09:12:59.710Z,67.99
2018-11-11T09:15:06.068Z,67.96
2018-11-11T09:17:11.123Z,67.93
2018-11-11T09:19:19.137Z,67.86
2018-11-11T09:21:27.008Z,67.80
2018-11-11T09:23:34.787Z,67.78
2018-11-11T09:25:42.469Z,67.77
2018-11-11T09:27:50.270Z,67.72
2018-11-11T09:29:58.086Z,67.65
2018-11-11T09:32:06.875Z,67.60
2018-11-11T09:34:14.701Z,67.58
2018-11-11T09:36:22.452Z,67.58
2018-11-11T09:38:30.398Z,67.57
2018-11-11T09:40:38.209Z,67.55
2018-11-11T09:42:45.983Z,67.48
2018-11-11T09:44:53.982Z,67.43
2018-11-11T09:47:01.953Z,67.34
2018-11-11T09:49:08.524Z,67.29
2018-11-11T09:51:13.413Z,67.22
2018-11-11T09:53:21.219Z,67.15
2018-11-11T09:55:29.163Z,67.09
2018-11-11T09:57:38.133Z,67.02
2018-11-11T09:59:45.927Z,67.00
2018-11-11T10:01:53.675Z,66.98
2018-11-11T10:04:53.359Z,66.92
2018-11-11T10:07:20.660Z,66.88
2018-11-11T10:10:10.080Z,66.90
2018-11-11T10:12:37.444Z,66.84
2018-11-11T10:15:09.561Z,66.80
2018-11-11T10:17:34.217Z,66.75
2018-11-11T10:20:35.688Z,66.67
2018-11-11T10:22:52.943Z,66.52
2018-11-11T10:25:15.562Z,66.40
2018-11-11T10:27:39.730Z,66.26
2018-11-11T10:30:06.549Z,66.04
2018-11-11T10:33:19.392Z,65.78
2018-11-11T10:35:45.093Z,65.69
2018-11-11T10:38:19.131Z,65.63
2018-11-11T10:40:45.459Z,65.54
2018-11-11T10:43:07.240Z,65.37
2018-11-11T10:45:34.661Z,65.24
2018-11-11T10:47:59.454Z,65.16
2018-11-11T10:50:06.282Z,65.07
2018-11-11T10:52:14.046Z,64.98
2018-11-11T10:54:21.870Z,64.80
2018-11-11T10:56:29.551Z,64.71
2018-11-11T10:58:37.342Z,64.62
2018-11-11T11:01:02.347Z,64.48
2018-11-11T11:03:27.397Z,64.35
2018-11-11T11:05:35.222Z,64.21
2018-11-11T11:07:43.051Z,64.11
2018-11-11T11:09:51.173Z,63.87
2018-11-11T11:11:59.719Z,63.70
2018-11-11T11:14:07.420Z,63.43
2018-11-11T11:16:16.009Z,63.17
2018-11-11T11:18:23.788Z,63.02
2018-11-11T11:20:31.924Z,62.88
2018-11-11T11:22:39.632Z,62.72
2018-11-11T11:24:47.489Z,62.58
2018-11-11T11:26:55.449Z,62.46
2018-11-11T11:29:04.128Z,62.34
2018-11-11T11:31:11.991Z,62.13
2018-11-11T11:33:19.758Z,61.54
2018-11-11T11:35:26.203Z,61.45
2018-11-11T11:37:31.397Z,61.34
2018-11-11T11:39:39.159Z,61.22
2018-11-11T11:41:46.908Z,61.06
2018-11-11T11:43:54.770Z,60.79
2018-11-11T11:46:02.494Z,60.66
2018-11-11T11:48:10.309Z,60.56
2018-11-11T11:50:18.113Z,60.47
2018-11-11T11:52:25.921Z,60.24
2018-11-11T11:54:33.696Z,60.11
2018-11-11T11:56:41.523Z,59.88
2018-11-11T11:58:49.635Z,59.80
2018-11-11T12:00:57.500Z,59.63
2018-11-11T12:03:05.240Z,59.29
2018-11-11T12:05:13.005Z,59.25
2018-11-11T12:07:20.726Z,59.13
2018-11-11T12:09:28.450Z,58.99
2018-11-11T12:11:36.175Z,58.84
2018-11-11T12:13:43.974Z,58.73
2018-11-11T12:15:52.090Z,58.70
2018-11-11T12:17:59.794Z,58.51
2018-11-11T12:20:08.111Z,58.42
2018-11-11T12:22:15.872Z,58.29
2018-11-11T12:24:23.605Z,58.11
2018-11-11T12:26:31.485Z,57.91
2018-11-11T12:28:39.178Z,57.76
2018-11-11T12:30:47.042Z,57.69
2018-11-11T12:32:54.760Z,57.62
2018-11-11T12:35:02.907Z,57.47
2018-11-11T12:37:10.604Z,57.32
2018-11-11T12:39:18.453Z,57.33
2018-11-11T12:41:26.016Z,57.23
2018-11-11T12:43:33.774Z,57.21
2018-11-11T12:45:41.504Z,57.18
2018-11-11T12:47:49.440Z,57.11
2018-11-11T12:49:57.183Z,57.01
2018-11-11T12:52:05.580Z,56.78
2018-11-11T12:54:13.305Z,56.59
2018-11-11T12:56:21.057Z,56.52
2018-11-11T12:58:28.800Z,56.45
2018-11-11T13:00:36.607Z,56.36
2018-11-11T13:02:44.371Z,56.30
2018-11-11T13:04:52.174Z,56.14
2018-11-11T13:06:59.956Z,56.01
2018-11-11T13:09:10.952Z,55.81
2018-11-11T13:11:19.101Z,55.85
2018-11-11T13:13:26.840Z,55.94
2018-11-11T13:15:34.610Z,55.73
2018-11-11T13:17:42.631Z,55.72
2018-11-11T13:19:50.428Z,55.54
2018-11-11T13:21:58.302Z,55.43
2018-11-11T13:24:05.992Z,55.44
2018-11-11T13:26:13.853Z,55.47
2018-11-11T13:28:21.905Z,55.44
2018-11-11T13:30:29.659Z,55.40
2018-11-11T13:32:37.636Z,55.38
2018-11-11T13:34:45.418Z,55.32
2018-11-11T13:36:53.149Z,55.21
2018-11-11T13:39:00.909Z,55.10
2018-11-11T13:41:08.709Z,54.97
2018-11-11T13:43:16.490Z,55.05
2018-11-11T13:45:24.969Z,55.04
2018-11-11T13:47:31.303Z,54.98
2018-11-11T13:49:36.161Z,54.88
2018-11-11T13:51:43.994Z,54.83
2018-11-11T13:53:52.556Z,54.73
2018-11-11T13:56:01.308Z,54.61
2018-11-11T13:58:09.065Z,54.56
2018-11-11T14:00:24.898Z,54.53
2018-11-11T14:02:34.254Z,54.45
2018-11-11T14:04:41.991Z,54.42
2018-11-11T14:06:49.774Z,54.32
2018-11-11T14:08:57.641Z,54.26
2018-11-11T14:11:05.502Z,54.17
2018-11-11T14:13:13.229Z,54.14
2018-11-11T14:15:24.879Z,54.02
2018-11-11T14:17:32.721Z,54.02
2018-11-11T14:19:40.584Z,53.95
2018-11-11T14:21:48.256Z,53.89
2018-11-11T14:23:56.357Z,53.78
2018-11-11T14:26:04.252Z,53.73
2018-11-11T14:28:12.058Z,53.67
2018-11-11T14:30:21.220Z,53.66
2018-11-11T14:32:29.049Z,53.60
2018-11-11T14:34:37.300Z,53.53
2018-11-11T14:36:43.851Z,53.50
2018-11-11T14:38:49.010Z,53.38
2018-11-11T14:40:57.154Z,53.37
2018-11-11T14:43:04.911Z,53.32
2018-11-11T14:45:14.221Z,53.26
2018-11-11T14:47:21.972Z,53.15
2018-11-11T14:49:30.132Z,53.14
2018-11-11T14:51:38.664Z,53.06
2018-11-11T14:53:46.445Z,53.05
2018-11-11T14:55:54.231Z,53.06
2018-11-11T14:58:02.799Z,52.96
2018-11-11T15:00:19.863Z,52.97
2018-11-11T15:02:27.699Z,52.96
2018-11-11T15:04:35.913Z,53.02
2018-11-11T15:06:43.680Z,53.05
2018-11-11T15:08:51.449Z,53.05
2018-11-11T15:10:59.202Z,53.06
2018-11-11T15:13:07.372Z,53.08
2018-11-11T15:15:16.808Z,53.09
2018-11-11T15:17:24.930Z,53.12
2018-11-11T15:19:33.070Z,53.12
2018-11-11T15:21:42.009Z,53.10
2018-11-11T15:23:52.098Z,53.12
2018-11-11T15:25:59.958Z,53.16
2018-11-11T15:28:05.740Z,53.20
2018-11-11T15:30:12.008Z,53.23
2018-11-11T15:32:19.894Z,53.24
2018-11-11T15:34:28.292Z,53.26
2018-11-11T15:36:36.041Z,53.25
2018-11-11T15:38:43.878Z,53.24
2018-11-11T15:40:51.700Z,53.29
2018-11-11T15:42:59.592Z,53.31
2018-11-11T15:45:18.825Z,53.25
2018-11-11T15:47:26.687Z,53.26
2018-11-11T15:49:33.202Z,53.34
2018-11-11T15:51:38.822Z,53.35
2018-11-11T15:53:46.624Z,53.34
2018-11-11T15:55:54.393Z,53.36
2018-11-11T15:58:02.143Z,53.38
2018-11-11T16:00:22.273Z,53.42
2018-11-11T16:02:30.028Z,53.43
2018-11-11T16:04:37.845Z,53.50
2018-11-11T16:06:46.604Z,53.53
2018-11-11T16:08:54.518Z,53.56
2018-11-11T16:11:02.242Z,53.60
2018-11-11T16:13:09.994Z,53.66
2018-11-11T16:15:26.586Z,53.71
2018-11-11T16:17:34.366Z,53.77
2018-11-11T16:19:42.184Z,53.80
2018-11-11T16:21:50.655Z,53.84
2018-11-11T16:23:58.413Z,53.95
2018-11-11T16:26:06.358Z,54.04
2018-11-11T16:28:14.236Z,54.14
2018-11-11T16:30:23.338Z,54.34
2018-11-11T16:32:31.163Z,54.57
2018-11-11T16:34:38.958Z,54.70
2018-11-11T16:36:46.897Z,54.76
2018-11-11T16:38:55.402Z,54.80
2018-11-11T16:41:03.509Z,54.87
2018-11-11T16:43:11.207Z,54.85
2018-11-11T16:45:22.751Z,54.85
2018-11-11T16:47:30.541Z,54.89
2018-11-11T16:49:38.595Z,55.00
2018-11-11T16:51:46.469Z,55.24
2018-11-11T16:53:54.511Z,55.42
2018-11-11T16:56:02.324Z,55.54
2018-11-11T16:58:10.533Z,55.54
2018-11-11T17:00:22.381Z,55.63
2018-11-11T17:02:30.166Z,55.82
2018-11-11T17:04:38.078Z,55.93
2018-11-11T17:06:45.852Z,55.93
2018-11-11T17:08:53.817Z,55.91
2018-11-11T17:11:05.839Z,55.95
2018-11-11T17:13:15.064Z,56.03
2018-11-11T17:15:27.052Z,56.06
2018-11-11T17:17:34.849Z,56.04
2018-11-11T17:19:42.674Z,56.00
2018-11-11T17:21:50.643Z,55.99
2018-11-11T17:23:58.171Z,55.97
2018-11-11T17:26:06.320Z,55.96
2018-11-11T17:28:14.240Z,55.98
2018-11-11T17:30:23.978Z,56.00
2018-11-11T17:32:31.805Z,56.03
2018-11-11T17:34:39.656Z,56.20
2018-11-11T17:36:47.504Z,56.42
2018-11-11T17:38:55.759Z,56.56
2018-11-11T17:41:03.548Z,56.68
2018-11-11T17:43:11.713Z,56.79
2018-11-11T17:45:19.791Z,56.83
2018-11-11T17:47:27.535Z,56.81
2018-11-11T17:49:36.445Z,56.77
2018-11-11T17:51:44.192Z,56.75
2018-11-11T17:53:51.941Z,56.76
2018-11-11T17:55:59.937Z,56.81
2018-11-11T17:58:07.828Z,56.82
2018-11-11T18:00:19.760Z,56.87
2018-11-11T18:02:27.573Z,56.90
2018-11-11T18:04:35.497Z,56.94
2018-11-11T18:06:43.714Z,56.99
2018-11-11T18:08:51.530Z,57.01
2018-11-11T18:10:59.371Z,57.06
2018-11-11T18:13:07.971Z,57.10
2018-11-11T18:15:20.619Z,57.14
2018-11-11T18:17:28.479Z,57.19
2018-11-11T18:19:36.261Z,57.23
2018-11-11T18:21:45.093Z,57.28
2018-11-11T18:23:53.284Z,57.33
2018-11-11T18:26:03.199Z,57.39
2018-11-11T18:28:19.193Z,57.46
2018-11-11T18:30:33.804Z,57.54
2018-11-11T18:32:43.712Z,57.59
2018-11-11T18:34:56.770Z,57.66
2018-11-11T18:37:06.401Z,57.77
2018-11-11T18:39:13.298Z,57.87
2018-11-11T18:41:21.120Z,57.98
2018-11-11T18:43:28.961Z,58.08
2018-11-11T18:45:36.945Z,58.14
2018-11-11T18:47:44.931Z,58.24
2018-11-11T18:49:51.296Z,58.29
2018-11-11T18:52:07.329Z,58.35
2018-11-11T18:54:15.760Z,58.45
2018-11-11T18:56:23.640Z,58.56
2018-11-11T18:58:31.438Z,58.68
2018-11-11T19:00:40.254Z,58.82
2018-11-11T19:03:02.360Z,58.86
2018-11-11T19:05:14.546Z,58.91
2018-11-11T19:07:22.580Z,58.94
2018-11-11T19:09:30.429Z,58.98
2018-11-11T19:11:39.017Z,59.01
2018-11-11T19:13:49.830Z,59.04
2018-11-11T19:15:57.686Z,59.07
2018-11-11T19:18:05.575Z,59.09
2018-11-11T19:20:17.538Z,59.13
2018-11-11T19:22:25.403Z,59.14
2018-11-11T19:24:51.082Z,59.12
2018-11-11T19:26:56.929Z,59.14
2018-11-11T19:29:02.477Z,59.15
2018-11-11T19:31:10.596Z,59.17
2018-11-11T19:33:18.646Z,59.21
2018-11-11T19:35:26.503Z,59.23
2018-11-11T19:37:34.294Z,59.23
2018-11-11T19:39:42.107Z,59.22
2018-11-11T19:41:50.144Z,59.23
2018-11-11T19:43:58.130Z,59.24
2018-11-11T19:46:06.488Z,59.25
2018-11-11T19:48:14.452Z,59.26
2018-11-11T19:50:21.163Z,59.25
2018-11-11T19:52:29.090Z,59.25
2018-11-11T19:54:37.063Z,59.24
2018-11-11T19:56:45.089Z,59.24
2018-11-11T19:58:52.825Z,59.26
2018-11-11T20:01:00.850Z,59.24
2018-11-11T20:03:09.129Z,59.22
2018-11-11T20:05:17.573Z,59.20
2018-11-11T20:07:25.817Z,59.21
2018-11-11T20:09:34.022Z,59.20
2018-11-11T20:11:42.084Z,59.21
2018-11-11T20:13:50.054Z,59.21
2018-11-11T20:15:57.938Z,59.22
2018-11-11T20:18:05.830Z,59.22
2018-11-11T20:20:15.932Z,59.22
2018-11-11T20:22:23.813Z,59.18
2018-11-11T20:24:32.262Z,59.19
2018-11-11T20:26:44.422Z,59.17
2018-11-11T20:28:54.045Z,59.15
2018-11-11T20:31:01.873Z,59.14
2018-11-11T20:33:10.052Z,59.15
2018-11-11T20:35:21.943Z,59.17
2018-11-11T20:37:29.686Z,59.19
2018-11-11T20:39:38.107Z,59.18
2018-11-11T20:41:45.954Z,59.21
2018-11-11T20:43:53.833Z,59.17
2018-11-11T20:46:01.660Z,59.17
2018-11-11T20:48:10.181Z,59.15
2018-11-11T20:50:21.306Z,59.13
2018-11-11T20:52:31.017Z,59.08
2018-11-11T20:55:13.374Z,59.08
2018-11-11T20:57:58.006Z,59.08
2018-11-11T21:00:18.642Z,59.10
2018-11-11T21:02:26.341Z,59.12
2018-11-11T21:04:34.252Z,59.12
2018-11-11T21:06:42.156Z,59.12
2018-11-11T21:08:49.987Z,59.12
2018-11-11T21:10:59.178Z,59.11
2018-11-11T21:13:07.132Z,59.08
2018-11-11T21:15:16.273Z,59.04
2018-11-11T21:17:24.598Z,59.04
2018-11-11T21:19:32.527Z,59.01
2018-11-11T21:21:40.385Z,58.96
2018-11-11T21:23:48.240Z,58.96
2018-11-11T21:25:56.020Z,58.92
2018-11-11T21:28:03.824Z,58.88
2018-11-11T21:30:16.528Z,58.84
2018-11-11T21:32:24.469Z,58.78
2018-11-11T21:34:32.878Z,58.77
2018-11-11T21:36:40.681Z,58.76
2018-11-11T21:38:48.449Z,58.74
2018-11-11T21:40:56.335Z,58.72
2018-11-11T21:43:04.122Z,58.68
2018-11-11T21:45:22.413Z,58.66
2018-11-11T21:47:30.098Z,58.63
2018-11-11T21:49:37.488Z,58.57
2018-11-11T21:51:42.402Z,58.51
2018-11-11T21:53:50.546Z,58.47
2018-11-11T21:55:58.959Z,58.42
2018-11-11T21:58:06.759Z,58.33
2018-11-11T22:00:14.943Z,58.29
2018-11-11T22:02:22.733Z,58.21
2018-11-11T22:04:30.497Z,58.16
2018-11-11T22:06:38.331Z,58.10
2018-11-11T22:08:46.519Z,58.06
2018-11-11T22:10:54.646Z,58.04
2018-11-11T22:13:02.464Z,58.07
2018-11-11T22:15:12.063Z,58.08
2018-11-11T22:17:19.880Z,58.09
2018-11-11T22:19:27.728Z,58.11
2018-11-11T22:21:35.493Z,58.22
2018-11-11T22:23:43.261Z,58.37
2018-11-11T22:25:51.661Z,58.50
2018-11-11T22:27:59.472Z,58.63
2018-11-11T22:30:24.043Z,58.65
2018-11-11T22:35:19.754Z,58.75
2018-11-11T22:37:27.660Z,58.98
2018-11-11T22:42:23.706Z,59.22
2018-11-11T22:44:31.664Z,59.19
2018-11-11T22:46:39.847Z,59.14
2018-11-11T22:48:46.131Z,59.07
2018-11-11T22:50:51.055Z,58.99
2018-11-11T22:52:58.831Z,58.93
2018-11-11T22:55:07.206Z,58.90
2018-11-11T22:57:15.157Z,58.88
2018-11-11T22:59:22.971Z,58.85
2018-11-11T23:01:31.056Z,58.88
2018-11-11T23:03:38.865Z,58.96
2018-11-11T23:05:46.605Z,59.06
2018-11-11T23:07:54.383Z,59.14
2018-11-11T23:10:02.167Z,59.30
2018-11-11T23:12:09.886Z,59.50
2018-11-11T23:14:17.683Z,59.67
2018-11-11T23:16:25.404Z,59.79
2018-11-11T23:18:33.187Z,59.89
2018-11-11T23:20:41.604Z,59.97
2018-11-11T23:22:49.247Z,60.04
2018-11-11T23:24:57.064Z,60.03
2018-11-11T23:27:04.831Z,60.10
2018-11-11T23:29:12.551Z,60.16
2018-11-11T23:31:20.292Z,60.24
2018-11-11T23:33:28.000Z,60.32
2018-11-11T23:35:36.015Z,60.37
2018-11-11T23:37:44.476Z,60.39
2018-11-11T23:39:52.325Z,60.33
2018-11-11T23:42:00.158Z,60.21
2018-11-11T23:44:09.213Z,60.19
2018-11-11T23:46:17.062Z,60.12
2018-11-11T23:48:23.910Z,60.08
2018-11-11T23:50:28.796Z,60.08
2018-11-11T23:52:36.583Z,60.08
2018-11-11T23:54:44.316Z,60.04
2018-11-11T23:56:52.501Z,60.01
2018-11-11T23:59:00.222Z,60.00
